createdAt,value
2017-12-30T00:01:25.066Z,3.40
2017-12-30T00:03:52.546Z,2.90
2017-12-30T00:06:19.997Z,3.13
2017-12-30T00:08:47.580Z,2.30
2017-12-30T00:11:15.800Z,2.53
2017-12-30T00:13:43.274Z,2.90
2017-12-30T00:16:10.743Z,3.30
2017-12-30T00:18:38.200Z,2.30
2017-12-30T00:21:05.702Z,2.90
2017-12-30T00:23:33.143Z,2.93
2017-12-30T00:26:00.667Z,2.30
2017-12-30T00:28:28.370Z,3.87
2017-12-30T00:30:56.738Z,2.47
2017-12-30T00:33:24.276Z,2.37
2017-12-30T00:35:51.940Z,2.37
2017-12-30T00:38:19.410Z,2.63
2017-12-30T00:40:46.884Z,2.67
2017-12-30T00:43:14.371Z,2.17
2017-12-30T00:45:41.856Z,2.40
2017-12-30T00:48:09.323Z,2.70
2017-12-30T00:50:36.868Z,2.70
2017-12-30T00:53:04.355Z,3.60
2017-12-30T00:55:31.838Z,3.27
2017-12-30T00:57:59.310Z,2.80
2017-12-30T01:00:26.811Z,3.70
2017-12-30T01:02:54.268Z,3.50
2017-12-30T01:05:21.745Z,3.10
2017-12-30T01:07:49.994Z,3.20
2017-12-30T01:10:17.488Z,3.07
2017-12-30T01:12:45.721Z,2.60
2017-12-30T01:15:13.215Z,3.30
2017-12-30T01:17:40.677Z,3.37
2017-12-30T01:20:08.914Z,2.30
2017-12-30T01:22:36.404Z,2.93
2017-12-30T01:25:03.848Z,2.10
2017-12-30T01:27:31.317Z,2.87
2017-12-30T01:29:59.550Z,3.07
2017-12-30T01:32:27.021Z,2.90
2017-12-30T01:34:54.524Z,2.73
2017-12-30T01:37:22.768Z,2.40
2017-12-30T01:39:50.233Z,3.40
2017-12-30T01:42:18.506Z,3.47
2017-12-30T01:44:45.972Z,3.00
2017-12-30T01:47:13.455Z,2.60
2017-12-30T01:49:40.918Z,3.00
2017-12-30T01:52:08.372Z,2.40
2017-12-30T01:54:35.890Z,2.70
2017-12-30T01:57:03.345Z,3.30
2017-12-30T01:59:30.826Z,3.20
2017-12-30T02:01:59.063Z,2.27
2017-12-30T02:04:26.534Z,2.30
2017-12-30T02:06:54.008Z,5.40
2017-12-30T02:09:22.229Z,2.83
2017-12-30T02:11:49.691Z,3.37
2017-12-30T02:14:17.166Z,2.70
2017-12-30T02:16:44.646Z,2.63
2017-12-30T02:19:12.146Z,2.30
2017-12-30T02:21:39.626Z,2.97
2017-12-30T02:24:07.148Z,2.70
2017-12-30T02:26:34.653Z,3.17
2017-12-30T02:29:02.151Z,2.93
2017-12-30T02:31:30.386Z,3.53
2017-12-30T02:33:57.850Z,4.20
2017-12-30T02:36:25.339Z,3.87
2017-12-30T02:38:53.589Z,3.00
2017-12-30T02:41:21.825Z,2.63
2017-12-30T02:43:49.286Z,2.83
2017-12-30T02:46:16.757Z,3.30
2017-12-30T02:48:44.237Z,2.87
2017-12-30T02:51:11.920Z,2.50
2017-12-30T02:53:39.376Z,2.50
2017-12-30T02:56:07.632Z,2.77
2017-12-30T02:58:35.085Z,2.27
2017-12-30T03:01:02.561Z,3.97
2017-12-30T03:03:30.003Z,2.53
2017-12-30T03:05:57.497Z,3.00
2017-12-30T03:08:24.999Z,3.00
2017-12-30T03:10:52.476Z,2.80
2017-12-30T03:13:19.963Z,3.77
2017-12-30T03:15:48.325Z,3.90
2017-12-30T03:18:15.790Z,3.40
2017-12-30T03:20:44.036Z,2.80
2017-12-30T03:23:11.511Z,2.30
2017-12-30T03:25:38.972Z,3.20
2017-12-30T03:28:06.451Z,3.20
2017-12-30T03:30:33.931Z,4.07
2017-12-30T03:33:01.407Z,3.20
2017-12-30T03:35:28.876Z,2.60
2017-12-30T03:37:56.365Z,3.60
2017-12-30T03:40:23.829Z,3.53
2017-12-30T03:42:51.310Z,4.20
2017-12-30T03:45:18.765Z,3.10
2017-12-30T03:47:46.242Z,3.17
2017-12-30T03:50:13.716Z,3.17
2017-12-30T03:52:41.193Z,3.57
2017-12-30T03:55:09.016Z,2.87
2017-12-30T03:57:36.528Z,2.70
2017-12-30T04:00:03.990Z,3.87
2017-12-30T04:02:32.231Z,2.90
2017-12-30T04:04:59.702Z,2.83
2017-12-30T04:07:27.184Z,3.93
2017-12-30T04:09:54.672Z,4.00
2017-12-30T04:12:22.448Z,3.37
2017-12-30T04:14:49.977Z,2.50
2017-12-30T04:17:17.412Z,2.97
2017-12-30T04:19:44.901Z,3.60
2017-12-30T04:22:12.384Z,3.17
2017-12-30T04:24:39.854Z,3.80
2017-12-30T04:27:07.338Z,4.27
2017-12-30T04:29:34.807Z,3.80
2017-12-30T04:32:02.290Z,4.07
2017-12-30T04:34:29.769Z,4.40
2017-12-30T04:36:57.251Z,3.97
2017-12-30T04:39:24.745Z,4.87
2017-12-30T04:41:52.996Z,4.40
2017-12-30T04:44:20.486Z,4.17
2017-12-30T04:46:47.974Z,6.53
2017-12-30T04:49:16.206Z,6.30
2017-12-30T04:51:44.444Z,7.20
2017-12-30T04:54:12.672Z,7.50
2017-12-30T04:56:40.148Z,7.13
2017-12-30T04:59:07.638Z,5.97
2017-12-30T05:01:35.128Z,6.50
2017-12-30T05:04:03.384Z,6.80
2017-12-30T05:06:30.859Z,6.80
2017-12-30T05:08:59.194Z,6.70
2017-12-30T05:11:26.658Z,6.70
2017-12-30T05:13:54.349Z,5.70
2017-12-30T05:16:21.854Z,5.83
2017-12-30T05:18:49.318Z,5.77
2017-12-30T05:21:16.814Z,5.30
2017-12-30T05:23:44.278Z,5.40
2017-12-30T05:26:11.750Z,3.90
2017-12-30T05:28:39.991Z,4.17
2017-12-30T05:31:07.558Z,3.17
2017-12-30T05:33:35.686Z,3.57
2017-12-30T05:36:03.154Z,4.10
2017-12-30T05:38:30.612Z,4.47
2017-12-30T05:40:58.099Z,3.00
2017-12-30T05:43:25.568Z,3.80
2017-12-30T05:45:53.049Z,4.47
2017-12-30T05:48:20.533Z,3.43
2017-12-30T05:50:47.991Z,3.47
2017-12-30T05:53:15.473Z,3.83
2017-12-30T05:55:42.940Z,4.37
2017-12-30T05:58:10.434Z,3.10
2017-12-30T06:00:38.875Z,3.40
2017-12-30T06:03:06.336Z,3.20
2017-12-30T06:05:33.819Z,3.30
2017-12-30T06:08:02.066Z,3.50
2017-12-30T06:10:29.572Z,3.40
2017-12-30T06:12:57.084Z,2.63
2017-12-30T06:15:24.752Z,4.60
2017-12-30T06:17:52.234Z,3.33
2017-12-30T06:20:20.481Z,2.20
2017-12-30T06:22:48.000Z,3.00
2017-12-30T06:25:15.460Z,2.50
2017-12-30T06:27:42.938Z,2.77
2017-12-30T06:30:10.410Z,3.07
2017-12-30T06:32:37.870Z,2.80
2017-12-30T06:35:05.347Z,3.83
2017-12-30T06:37:33.586Z,2.57
2017-12-30T06:40:01.057Z,2.30
2017-12-30T06:42:28.611Z,2.90
2017-12-30T06:44:56.070Z,1.60
2017-12-30T06:47:23.553Z,2.20
2017-12-30T06:49:51.834Z,2.03
2017-12-30T06:52:20.065Z,2.90
2017-12-30T06:54:47.582Z,1.37
2017-12-30T06:57:15.045Z,1.47
2017-12-30T06:59:42.520Z,2.10
2017-12-30T07:02:09.994Z,1.73
2017-12-30T07:04:37.479Z,1.43
2017-12-30T07:07:04.948Z,2.73
2017-12-30T07:09:32.429Z,1.80
2017-12-30T07:11:59.902Z,1.57
2017-12-30T07:14:27.362Z,1.77
2017-12-30T07:16:54.873Z,2.57
2017-12-30T07:19:23.123Z,2.67
2017-12-30T07:21:50.573Z,1.80
2017-12-30T07:24:18.038Z,1.73
2017-12-30T07:26:45.515Z,1.83
2017-12-30T07:29:12.979Z,1.33
2017-12-30T07:31:41.511Z,1.57
2017-12-30T07:34:08.977Z,1.30
2017-12-30T07:36:36.469Z,1.50
2017-12-30T07:39:03.941Z,2.40
2017-12-30T07:41:32.173Z,1.73
2017-12-30T07:43:59.640Z,1.30
2017-12-30T07:46:27.198Z,2.00
2017-12-30T07:48:55.440Z,1.60
2017-12-30T07:51:22.910Z,1.30
2017-12-30T07:53:50.379Z,1.30
2017-12-30T07:56:18.639Z,1.60
2017-12-30T07:58:46.102Z,1.50
2017-12-30T08:01:13.585Z,1.70
2017-12-30T08:03:41.046Z,1.50
2017-12-30T08:06:08.510Z,1.43
2017-12-30T08:08:35.984Z,1.70
2017-12-30T08:11:04.246Z,1.50
2017-12-30T08:13:31.716Z,1.40
2017-12-30T08:15:59.944Z,1.67
2017-12-30T08:18:27.447Z,1.93
2017-12-30T08:20:54.942Z,1.90
2017-12-30T08:23:23.265Z,1.37
2017-12-30T08:25:50.765Z,1.40
2017-12-30T08:28:18.308Z,1.00
2017-12-30T08:30:46.695Z,1.17
2017-12-30T08:33:14.310Z,1.30
2017-12-30T08:35:41.767Z,1.20
2017-12-30T08:38:09.228Z,1.40
2017-12-30T08:40:36.694Z,1.33
2017-12-30T08:43:04.163Z,0.97
2017-12-30T08:45:32.405Z,1.10
2017-12-30T08:47:59.910Z,0.90
2017-12-30T08:50:28.148Z,1.83
2017-12-30T08:52:55.619Z,1.30
2017-12-30T08:55:23.087Z,1.00
2017-12-30T08:57:51.327Z,1.27
2017-12-30T09:00:18.789Z,1.50
2017-12-30T09:02:47.032Z,1.20
2017-12-30T09:05:14.484Z,1.00
2017-12-30T09:07:41.944Z,1.30
2017-12-30T09:10:09.450Z,1.30
2017-12-30T09:12:37.687Z,1.27
2017-12-30T09:15:05.158Z,0.90
2017-12-30T09:17:32.614Z,1.00
2017-12-30T09:20:00.091Z,1.27
2017-12-30T09:22:27.553Z,0.90
2017-12-30T09:24:55.015Z,0.90
2017-12-30T09:27:22.512Z,1.20
2017-12-30T09:29:49.975Z,1.90
2017-12-30T09:32:17.470Z,2.33
2017-12-30T09:34:44.949Z,1.13
2017-12-30T09:37:12.419Z,2.30
2017-12-30T09:39:40.664Z,0.93
2017-12-30T09:42:08.128Z,0.80
2017-12-30T09:44:35.588Z,0.93
2017-12-30T09:47:03.088Z,0.90
2017-12-30T09:49:30.539Z,1.00
2017-12-30T09:51:58.038Z,1.23
2017-12-30T09:54:25.485Z,0.90
2017-12-30T09:56:52.953Z,0.80
2017-12-30T09:59:20.436Z,1.00
2017-12-30T10:01:48.041Z,1.00
2017-12-30T10:04:15.528Z,1.13
2017-12-30T10:06:43.019Z,2.60
2017-12-30T10:09:10.490Z,1.50
2017-12-30T10:11:37.976Z,2.13
2017-12-30T10:14:05.435Z,1.67
2017-12-30T10:16:32.924Z,1.63
2017-12-30T10:19:00.390Z,1.40
2017-12-30T10:21:28.626Z,1.20
2017-12-30T10:23:56.110Z,1.77
2017-12-30T10:26:23.582Z,2.10
2017-12-30T10:28:51.086Z,1.77
2017-12-30T10:31:18.564Z,2.30
2017-12-30T10:33:46.019Z,1.60
2017-12-30T10:36:13.498Z,1.77
2017-12-30T10:38:40.979Z,1.93
2017-12-30T10:41:08.448Z,2.50
2017-12-30T10:43:36.735Z,2.37
2017-12-30T10:46:04.232Z,1.87
2017-12-30T10:48:31.714Z,1.40
2017-12-30T10:50:59.170Z,1.13
2017-12-30T10:53:27.413Z,1.10
2017-12-30T10:55:54.892Z,1.50
2017-12-30T10:58:22.372Z,2.27
2017-12-30T11:00:55.547Z,2.03
2017-12-30T11:03:23.002Z,1.20
2017-12-30T11:05:50.476Z,1.93
2017-12-30T11:08:17.938Z,2.13
2017-12-30T11:10:45.427Z,1.77
2017-12-30T11:13:12.909Z,2.43
2017-12-30T11:15:40.392Z,3.07
2017-12-30T11:18:07.853Z,2.80
2017-12-30T11:20:35.325Z,2.50
2017-12-30T11:23:02.779Z,2.60
2017-12-30T11:25:30.335Z,2.70
2017-12-30T11:27:57.793Z,2.20
2017-12-30T11:30:25.276Z,2.17
2017-12-30T11:32:58.558Z,1.93
2017-12-30T11:35:26.070Z,2.90
2017-12-30T11:37:53.559Z,3.40
2017-12-30T11:40:21.043Z,2.87
2017-12-30T11:42:49.257Z,3.27
2017-12-30T11:45:16.736Z,3.23
2017-12-30T11:47:44.224Z,3.60
2017-12-30T11:50:11.719Z,3.07
2017-12-30T11:52:39.185Z,3.20
2017-12-30T11:55:06.657Z,2.80
2017-12-30T11:57:34.129Z,2.80
2017-12-30T12:00:01.587Z,2.60
2017-12-30T12:02:29.074Z,3.60
2017-12-30T12:04:57.314Z,3.60
2017-12-30T12:07:24.831Z,4.70
2017-12-30T12:09:52.306Z,2.27
2017-12-30T12:12:19.753Z,3.03
2017-12-30T12:14:47.252Z,3.33
2017-12-30T12:17:14.734Z,3.83
2017-12-30T12:19:42.179Z,3.40
2017-12-30T12:22:09.664Z,4.30
2017-12-30T12:24:37.122Z,3.70
2017-12-30T12:27:06.161Z,3.40
2017-12-30T12:29:33.616Z,3.90
2017-12-30T12:32:01.102Z,4.60
2017-12-30T12:34:28.583Z,4.20
2017-12-30T12:36:56.058Z,3.30
2017-12-30T12:39:23.571Z,3.40
2017-12-30T12:41:51.029Z,4.90
2017-12-30T12:44:18.490Z,3.70
2017-12-30T12:46:45.979Z,2.70
2017-12-30T12:49:14.302Z,4.63
2017-12-30T12:51:41.814Z,4.17
2017-12-30T12:54:09.278Z,4.40
2017-12-30T12:56:36.921Z,3.47
2017-12-30T12:59:05.171Z,3.93
2017-12-30T13:01:32.645Z,3.97
2017-12-30T13:04:00.105Z,5.50
2017-12-30T13:06:27.641Z,3.70
2017-12-30T13:08:57.810Z,3.30
2017-12-30T13:11:25.305Z,3.70
2017-12-30T13:13:52.788Z,3.63
2017-12-30T13:16:20.262Z,3.37
2017-12-30T13:18:47.723Z,4.23
2017-12-30T13:21:15.194Z,3.20
2017-12-30T13:23:42.664Z,4.40
2017-12-30T13:26:10.128Z,3.83
2017-12-30T13:28:37.604Z,2.70
2017-12-30T13:31:05.131Z,4.23
2017-12-30T13:33:32.616Z,3.20
2017-12-30T13:36:00.114Z,3.37
2017-12-30T13:38:28.361Z,4.70
2017-12-30T13:40:55.996Z,3.30
2017-12-30T13:43:23.473Z,3.60
2017-12-30T13:45:51.005Z,5.40
2017-12-30T13:48:18.509Z,4.00
2017-12-30T13:50:45.991Z,3.53
2017-12-30T13:53:14.226Z,3.07
2017-12-30T13:55:41.714Z,4.37
2017-12-30T13:58:09.941Z,4.00
2017-12-30T14:00:37.434Z,3.13
2017-12-30T14:03:04.919Z,3.10
2017-12-30T14:05:33.179Z,4.17
2017-12-30T14:08:01.420Z,3.47
2017-12-30T14:10:28.929Z,3.67
2017-12-30T14:12:57.195Z,2.73
2017-12-30T14:15:25.412Z,4.07
2017-12-30T14:17:52.899Z,4.60
2017-12-30T14:20:20.371Z,5.47
2017-12-30T14:22:47.863Z,3.60
2017-12-30T14:25:15.356Z,4.53
2017-12-30T14:27:42.861Z,5.30
2017-12-30T14:30:11.141Z,4.30
2017-12-30T14:32:39.402Z,3.63
2017-12-30T14:35:06.871Z,3.93
2017-12-30T14:37:35.154Z,4.23
2017-12-30T14:40:03.402Z,2.63
2017-12-30T14:42:30.871Z,3.77
2017-12-30T14:44:59.102Z,5.00
2017-12-30T14:47:26.602Z,5.47
2017-12-30T14:49:54.084Z,3.53
2017-12-30T14:52:21.542Z,3.80
2017-12-30T14:54:49.047Z,5.00
2017-12-30T14:57:16.527Z,3.20
2017-12-30T14:59:44.005Z,6.07
2017-12-30T15:02:12.643Z,4.60
2017-12-30T15:04:40.150Z,10.77
2017-12-30T15:07:07.699Z,9.20
2017-12-30T15:09:35.172Z,4.47
2017-12-30T15:12:02.662Z,3.50
2017-12-30T15:14:30.142Z,4.67
2017-12-30T15:16:57.607Z,4.37
2017-12-30T15:19:31.589Z,4.83
2017-12-30T15:21:59.138Z,3.60
2017-12-30T15:24:26.672Z,3.83
2017-12-30T15:26:54.289Z,4.90
2017-12-30T15:29:21.792Z,3.73
2017-12-30T15:31:49.408Z,4.70
2017-12-30T15:34:16.939Z,4.90
2017-12-30T15:36:44.537Z,3.50
2017-12-30T15:39:12.022Z,3.83
2017-12-30T15:41:40.333Z,4.93
2017-12-30T15:44:07.838Z,3.77
2017-12-30T15:46:35.380Z,3.57
2017-12-30T15:49:02.885Z,7.90
2017-12-30T15:51:30.454Z,4.43
2017-12-30T15:53:58.755Z,3.83
2017-12-30T15:56:26.367Z,3.10
2017-12-30T15:58:53.915Z,2.83
2017-12-30T16:01:21.495Z,3.43
2017-12-30T16:03:49.852Z,3.97
2017-12-30T16:06:17.333Z,3.90
2017-12-30T16:08:45.093Z,3.63
2017-12-30T16:11:12.699Z,3.57
2017-12-30T16:13:40.235Z,3.17
2017-12-30T16:16:07.754Z,3.47
2017-12-30T16:18:35.337Z,2.77
2017-12-30T16:21:02.842Z,3.63
2017-12-30T16:23:30.346Z,4.80
2017-12-30T16:25:57.907Z,3.20
2017-12-30T16:28:25.506Z,6.60
2017-12-30T16:30:52.991Z,4.13
2017-12-30T16:33:20.888Z,4.30
2017-12-30T16:35:48.382Z,3.73
2017-12-30T16:38:15.849Z,4.07
2017-12-30T16:40:43.353Z,4.23
2017-12-30T16:43:11.591Z,4.30
2017-12-30T16:45:39.069Z,3.60
2017-12-30T16:48:06.548Z,5.00
2017-12-30T16:50:34.791Z,3.43
2017-12-30T16:53:02.257Z,3.40
2017-12-30T16:55:29.745Z,2.97
2017-12-30T16:57:57.979Z,4.70
2017-12-30T17:00:25.461Z,3.97
2017-12-30T17:02:53.697Z,5.77
2017-12-30T17:05:21.180Z,4.53
2017-12-30T17:07:48.723Z,3.10
2017-12-30T17:10:16.229Z,3.80
2017-12-30T17:12:44.479Z,6.50
2017-12-30T17:15:12.064Z,5.20
2017-12-30T17:17:39.558Z,4.17
2017-12-30T17:20:07.043Z,6.57
2017-12-30T17:22:34.530Z,4.90
2017-12-30T17:25:02.008Z,7.03
2017-12-30T17:27:29.517Z,4.60
2017-12-30T17:29:57.032Z,4.07
2017-12-30T17:32:25.246Z,3.70
2017-12-30T17:34:52.740Z,3.47
2017-12-30T17:37:21.014Z,3.87
2017-12-30T17:39:49.259Z,3.37
2017-12-30T17:42:16.738Z,2.93
2017-12-30T17:44:44.958Z,3.40
2017-12-30T17:47:12.426Z,4.90
2017-12-30T17:49:39.914Z,4.30
2017-12-30T17:52:07.416Z,3.07
2017-12-30T17:54:34.925Z,3.80
2017-12-30T17:57:02.386Z,4.97
2017-12-30T17:59:29.854Z,4.50
2017-12-30T18:01:57.351Z,4.20
2017-12-30T18:04:24.817Z,3.40
2017-12-30T18:06:52.300Z,3.77
2017-12-30T18:09:19.780Z,5.83
2017-12-30T18:11:47.703Z,3.87
2017-12-30T18:14:15.941Z,4.43
2017-12-30T18:16:44.178Z,3.70
2017-12-30T18:19:11.657Z,3.37
2017-12-30T18:21:39.179Z,3.17
2017-12-30T18:24:06.679Z,3.93
2017-12-30T18:26:34.162Z,3.20
2017-12-30T18:29:01.653Z,3.20
2017-12-30T18:31:29.605Z,4.13
2017-12-30T18:33:57.874Z,5.73
2017-12-30T18:36:25.338Z,11.87
2017-12-30T18:38:52.826Z,3.63
2017-12-30T18:41:20.294Z,6.70
2017-12-30T18:43:47.808Z,3.63
2017-12-30T18:46:15.452Z,4.43
2017-12-30T18:48:43.025Z,4.27
2017-12-30T18:51:10.578Z,3.23
2017-12-30T18:53:38.788Z,3.23
2017-12-30T18:56:06.293Z,3.50
2017-12-30T18:58:34.588Z,5.20
2017-12-30T19:01:02.066Z,4.33
2017-12-30T19:03:29.653Z,3.70
2017-12-30T19:05:57.368Z,3.70
2017-12-30T19:08:24.938Z,12.30
2017-12-30T19:10:52.476Z,3.73
2017-12-30T19:13:20.758Z,2.80
2017-12-30T19:15:48.227Z,2.73
2017-12-30T19:18:15.773Z,2.80
2017-12-30T19:20:43.364Z,2.57
2017-12-30T19:23:10.826Z,2.90
2017-12-30T19:25:38.385Z,2.50
2017-12-30T19:28:05.873Z,2.80
2017-12-30T19:30:33.420Z,3.00
2017-12-30T19:33:00.869Z,3.00
2017-12-30T19:35:28.443Z,3.33
2017-12-30T19:37:56.012Z,3.07
2017-12-30T19:40:23.543Z,3.00
2017-12-30T19:42:51.033Z,4.37
2017-12-30T19:45:18.506Z,3.03
2017-12-30T19:47:45.976Z,3.23
2017-12-30T19:50:13.434Z,3.63
2017-12-30T19:52:40.911Z,2.57
2017-12-30T19:55:08.360Z,2.93
2017-12-30T19:57:35.849Z,2.47
2017-12-30T20:00:03.334Z,6.00
2017-12-30T20:02:30.810Z,3.37
2017-12-30T20:04:59.115Z,2.80
2017-12-30T20:07:26.617Z,2.67
2017-12-30T20:09:54.087Z,3.43
2017-12-30T20:12:22.340Z,3.80
2017-12-30T20:14:49.802Z,3.17
2017-12-30T20:17:17.273Z,2.53
2017-12-30T20:19:44.746Z,3.23
2017-12-30T20:22:12.205Z,7.17
2017-12-30T20:24:39.668Z,4.00
2017-12-30T20:27:07.148Z,3.50
2017-12-30T20:29:34.619Z,3.10
2017-12-30T20:32:02.085Z,3.20
2017-12-30T20:34:29.566Z,2.43
2017-12-30T20:36:57.019Z,3.20
2017-12-30T20:39:24.513Z,4.10
2017-12-30T20:41:52.000Z,4.10
2017-12-30T20:44:19.466Z,3.13
2017-12-30T20:46:46.939Z,2.77
2017-12-30T20:49:14.440Z,2.70
2017-12-30T20:51:41.901Z,3.60
2017-12-30T20:54:09.348Z,1.83
2017-12-30T20:56:37.587Z,3.33
2017-12-30T20:59:05.044Z,3.20
2017-12-30T21:01:32.510Z,3.33
2017-12-30T21:03:59.975Z,3.67
2017-12-30T21:06:27.423Z,3.90
2017-12-30T21:08:54.894Z,3.43
2017-12-30T21:11:23.128Z,3.53
2017-12-30T21:13:50.632Z,3.47
2017-12-30T21:16:18.847Z,2.57
2017-12-30T21:18:46.364Z,2.57
2017-12-30T21:21:13.809Z,2.93
2017-12-30T21:23:41.259Z,2.80
2017-12-30T21:26:08.779Z,1.83
2017-12-30T21:28:36.238Z,5.03
2017-12-30T21:31:03.703Z,2.70
2017-12-30T21:33:31.223Z,2.20
2017-12-30T21:35:58.667Z,2.67
2017-12-30T21:38:26.114Z,2.13
2017-12-30T21:40:53.680Z,2.40
2017-12-30T21:43:21.165Z,2.23
2017-12-30T21:45:48.618Z,2.10
2017-12-30T21:48:16.083Z,2.03
2017-12-30T21:50:43.555Z,1.80
2017-12-30T21:53:11.020Z,5.30
2017-12-30T21:55:38.483Z,2.63
2017-12-30T21:58:05.949Z,3.40
2017-12-30T22:00:33.426Z,1.90
2017-12-30T22:03:00.881Z,2.30
2017-12-30T22:05:28.366Z,1.80
2017-12-30T22:07:56.621Z,2.07
2017-12-30T22:10:24.089Z,1.67
2017-12-30T22:12:51.575Z,1.93
2017-12-30T22:15:19.066Z,2.10
2017-12-30T22:17:46.525Z,1.90
2017-12-30T22:20:14.012Z,1.70
2017-12-30T22:22:41.484Z,1.60
2017-12-30T22:25:09.724Z,1.23
2017-12-30T22:27:37.217Z,2.03
2017-12-30T22:30:05.447Z,1.70
2017-12-30T22:32:32.974Z,1.70
2017-12-30T22:35:00.478Z,2.27
2017-12-30T22:37:27.951Z,2.20
2017-12-30T22:39:55.406Z,1.70
2017-12-30T22:42:22.877Z,2.03
2017-12-30T22:44:50.381Z,2.00
2017-12-30T22:47:17.854Z,3.10
2017-12-30T22:49:45.407Z,2.13
2017-12-30T22:52:12.863Z,1.90
2017-12-30T22:54:40.331Z,2.07
2017-12-30T22:57:07.803Z,2.20
2017-12-30T22:59:35.253Z,2.77
2017-12-30T23:02:02.712Z,1.87
2017-12-30T23:04:30.206Z,3.60
2017-12-30T23:06:57.718Z,2.70
2017-12-30T23:09:25.180Z,2.20
2017-12-30T23:11:52.769Z,2.23
2017-12-30T23:14:21.062Z,2.40
2017-12-30T23:16:48.594Z,2.40
2017-12-30T23:19:16.996Z,2.43
2017-12-30T23:21:44.450Z,2.30
2017-12-30T23:24:12.709Z,2.57
2017-12-30T23:26:40.165Z,3.20
2017-12-30T23:29:08.979Z,3.20
2017-12-30T23:31:36.447Z,5.43
2017-12-30T23:34:03.943Z,3.10
2017-12-30T23:36:31.395Z,2.57
2017-12-30T23:38:58.861Z,1.90
2017-12-30T23:41:26.350Z,3.13
2017-12-30T23:43:54.747Z,2.00
2017-12-30T23:46:22.234Z,2.30
